Time;durP1;ratioP1;P1;durP2;ratioP2;P2;SDS_P1;SDS_P2;PMS_P1;PMS_P2;Temp;Humidity;BMP_temperature;BMP_pressure;BME280_temperature;BME280_humidity;BME280_pressure;Samples;Min_cycle;Max_cycle;Signal;HPM_P1;HPM_P2
2022/10/18 00:02:57;;;;;;;23.50;20.50;;;14.60;99.90;;;;;;6275141;28;20950;-62
2022/10/18 00:06:01;;;;;;;22.67;20.00;;;14.60;99.90;;;;;;6275797;28;20466;-62
2022/10/18 00:09:05;;;;;;;24.93;19.70;;;14.60;99.90;;;;;;6274481;28;20492;-61
2022/10/18 00:12:09;;;;;;;27.03;20.40;;;14.50;99.90;;;;;;6273598;28;20481;-61
2022/10/18 00:15:12;;;;;;;21.03;18.93;;;14.40;99.90;;;;;;6272323;28;21702;-61
2022/10/18 00:18:15;;;;;;;20.90;18.90;;;14.50;99.90;;;;;;6267547;28;20524;-61
2022/10/18 00:21:20;;;;;;;22.57;20.30;;;14.40;99.90;;;;;;6270375;28;20474;-61
2022/10/18 00:24:24;;;;;;;21.73;19.53;;;14.40;99.90;;;;;;6273425;28;20529;-61
2022/10/18 00:27:29;;;;;;;23.57;21.13;;;14.30;99.90;;;;;;6274515;28;20502;-61
2022/10/18 00:30:32;;;;;;;23.97;19.97;;;14.20;99.90;;;;;;6274376;28;20474;-61
2022/10/18 00:33:35;;;;;;;23.40;20.90;;;14.20;99.90;;;;;;6272079;28;20825;-61
2022/10/18 00:36:39;;;;;;;21.37;19.20;;;14.20;99.90;;;;;;6274220;28;20528;-61
2022/10/18 00:39:44;;;;;;;22.13;19.80;;;14.10;99.90;;;;;;6274690;28;20474;-61
2022/10/18 00:42:47;;;;;;;18.70;16.40;;;14.10;99.90;;;;;;6279766;28;20553;-62
2022/10/18 00:45:50;;;;;;;20.27;18.17;;;14.10;99.90;;;;;;6299990;28;20484;-62
2022/10/18 00:48:55;;;;;;;21.03;18.97;;;14.10;99.90;;;;;;6298845;28;20484;-62
2022/10/18 00:52:01;;;;;;;21.87;19.30;;;14.00;99.90;;;;;;6299525;28;20596;-63
2022/10/18 00:55:07;;;;;;;21.47;19.20;;;14.00;99.90;;;;;;6299640;28;20473;-62
2022/10/18 00:58:13;;;;;;;19.90;18.03;;;13.90;99.90;;;;;;6301577;28;20823;-62
2022/10/18 01:01:16;;;;;;;21.60;19.40;;;13.90;99.90;;;;;;6299617;28;20630;-62
2022/10/18 01:04:22;;;;;;;21.03;18.47;;;13.80;99.90;;;;;;6303168;28;20469;-62
2022/10/18 01:07:37;;;;;;;21.00;18.80;;;13.80;99.90;;;;;;6298919;28;20477;-62
2022/10/18 01:10:49;;;;;;;26.70;19.20;;;13.80;99.90;;;;;;6298637;28;20856;-61
2022/10/18 01:14:05;;;;;;;21.33;19.23;;;13.80;99.90;;;;;;6296691;28;20470;-62
2022/10/18 01:17:14;;;;;;;20.30;18.20;;;13.80;99.90;;;;;;6273986;28;20479;-61
2022/10/18 01:20:35;;;;;;;25.73;17.60;;;13.80;99.90;;;;;;6273600;28;20977;-61
2022/10/18 01:24:07;;;;;;;20.07;18.30;;;13.80;99.90;;;;;;6259741;28;20524;-61
2022/10/18 01:27:42;;;;;;;18.90;17.10;;;13.80;99.90;;;;;;6273841;28;20535;-61
2022/10/18 01:30:54;;;;;;;19.50;17.40;;;13.80;99.90;;;;;;6271955;28;20470;-61
2022/10/18 01:33:59;;;;;;;17.50;15.80;;;13.70;99.90;;;;;;6275982;28;20466;-61
2022/10/18 01:37:09;;;;;;;19.80;17.90;;;13.70;99.90;;;;;;6278704;28;20463;-61
2022/10/18 01:40:14;;;;;;;19.93;17.77;;;13.70;99.90;;;;;;6279275;28;20482;-61
2022/10/18 01:43:19;;;;;;;18.77;16.90;;;13.70;99.90;;;;;;6286874;28;20999;-60
2022/10/18 01:46:25;;;;;;;19.37;17.43;;;13.60;99.90;;;;;;6291750;28;20470;-60
2022/10/18 01:49:28;;;;;;;19.53;17.53;;;13.60;99.90;;;;;;6280000;28;20535;-60
2022/10/18 01:52:32;;;;;;;19.20;17.47;;;13.60;99.90;;;;;;6279433;28;20550;-62
2022/10/18 01:55:42;;;;;;;22.70;18.60;;;13.60;99.90;;;;;;6278555;28;20994;-62
2022/10/18 01:58:54;;;;;;;19.87;17.87;;;13.50;99.90;;;;;;6284998;28;20489;-61
2022/10/18 02:02:08;;;;;;;20.00;18.20;;;13.50;99.90;;;;;;6283962;28;20482;-62
2022/10/18 02:05:19;;;;;;;21.40;17.60;;;13.40;99.90;;;;;;6256889;28;20479;-62
2022/10/18 02:08:28;;;;;;;23.27;18.80;;;13.40;99.90;;;;;;6253324;28;20495;-62
2022/10/18 02:11:34;;;;;;;21.63;18.20;;;13.40;99.90;;;;;;6253544;28;20436;-62
2022/10/18 02:14:38;;;;;;;19.33;17.33;;;13.40;99.90;;;;;;6253147;28;20419;-61
2022/10/18 02:17:45;;;;;;;20.10;18.10;;;13.40;99.90;;;;;;6252996;28;20447;-61
2022/10/18 02:20:49;;;;;;;20.63;18.53;;;13.30;99.90;;;;;;6253220;28;20458;-61
2022/10/18 02:23:53;;;;;;;25.00;22.67;;;13.30;99.90;;;;;;6252795;28;20526;-61
2022/10/18 02:26:56;;;;;;;24.53;22.00;;;13.30;99.90;;;;;;6239397;28;20880;-61
2022/10/18 02:29:59;;;;;;;25.57;23.17;;;13.20;99.90;;;;;;6252863;28;20541;-60
2022/10/18 02:33:11;;;;;;;23.63;21.33;;;13.20;99.90;;;;;;6253040;28;20471;-60
2022/10/18 02:36:19;;;;;;;21.87;19.70;;;13.20;99.90;;;;;;6252783;28;20475;-61
2022/10/18 02:39:29;;;;;;;22.40;20.43;;;13.10;99.90;;;;;;6252510;28;20475;-61
2022/10/18 02:42:36;;;;;;;22.53;19.77;;;13.10;99.90;;;;;;6252742;28;20476;-61
2022/10/18 02:45:39;;;;;;;21.27;19.27;;;13.10;99.90;;;;;;6251168;28;20482;-61
2022/10/18 02:48:44;;;;;;;21.03;17.97;;;13.10;99.90;;;;;;6252087;28;20793;-61
2022/10/18 02:51:47;;;;;;;21.20;19.03;;;13.10;99.90;;;;;;6252088;28;20490;-61
2022/10/18 02:54:50;;;;;;;24.20;20.53;;;13.10;99.90;;;;;;6252320;28;20475;-61
2022/10/18 02:57:53;;;;;;;19.73;17.87;;;13.00;99.90;;;;;;6252681;28;20944;-62
2022/10/18 03:00:56;;;;;;;21.17;19.13;;;13.10;99.90;;;;;;6252044;28;20474;-62
2022/10/18 03:04:01;;;;;;;22.23;19.50;;;13.00;99.90;;;;;;6252047;28;20582;-62
2022/10/18 03:07:04;;;;;;;19.10;17.30;;;13.00;99.90;;;;;;6251909;28;20799;-63
2022/10/18 03:10:08;;;;;;;20.87;18.77;;;13.00;99.90;;;;;;6251765;28;20495;-63
2022/10/18 03:13:11;;;;;;;20.70;18.50;;;13.00;99.90;;;;;;6251321;28;20479;-63
2022/10/18 03:16:14;;;;;;;21.23;19.03;;;13.00;99.90;;;;;;6252173;28;20860;-63
2022/10/18 03:19:19;;;;;;;20.53;18.37;;;12.90;99.90;;;;;;6251920;28;20475;-63
2022/10/18 03:22:24;;;;;;;19.37;17.40;;;12.90;99.90;;;;;;6251935;28;20991;-62
2022/10/18 03:25:27;;;;;;;20.80;18.60;;;12.90;99.90;;;;;;6251412;28;20569;-62
2022/10/18 03:28:30;;;;;;;19.70;17.60;;;12.90;99.90;;;;;;6251135;28;20482;-61
2022/10/18 03:31:33;;;;;;;22.27;18.97;;;12.80;99.90;;;;;;6241914;28;20479;-60
2022/10/18 03:34:38;;;;;;;20.70;18.70;;;12.80;99.90;;;;;;6250929;28;20478;-61
2022/10/18 03:37:44;;;;;;;27.60;21.20;;;12.80;99.90;;;;;;6251131;28;20838;-61
2022/10/18 03:40:47;;;;;;;26.40;22.87;;;12.80;99.90;;;;;;6251234;28;20484;-61
2022/10/18 03:43:50;;;;;;;28.17;25.50;;;12.80;99.90;;;;;;6251461;28;20948;-62
2022/10/18 03:46:53;;;;;;;26.97;22.00;;;12.80;99.90;;;;;;6251591;28;20770;-62
2022/10/18 03:49:58;;;;;;;23.93;21.67;;;12.80;99.90;;;;;;6250947;28;20932;-60
2022/10/18 03:53:01;;;;;;;23.30;20.80;;;12.70;99.90;;;;;;6250665;28;20483;-59
2022/10/18 03:56:04;;;;;;;22.30;20.00;;;12.70;99.90;;;;;;6250827;28;20471;-61
2022/10/18 03:59:07;;;;;;;23.50;21.20;;;12.70;99.90;;;;;;6250705;28;20478;-61
2022/10/18 04:02:11;;;;;;;20.63;18.67;;;12.60;99.90;;;;;;6250164;28;20486;-61
2022/10/18 04:05:15;;;;;;;23.70;21.17;;;12.60;99.90;;;;;;6250267;28;20502;-61
2022/10/18 04:08:19;;;;;;;22.30;20.07;;;12.50;99.90;;;;;;6250460;28;20922;-60
2022/10/18 04:11:22;;;;;;;23.47;21.20;;;12.50;99.90;;;;;;6265751;28;20494;-60
2022/10/18 04:14:25;;;;;;;23.13;20.77;;;12.50;99.90;;;;;;6253767;28;20956;-60
2022/10/18 04:17:28;;;;;;;24.20;19.47;;;12.50;99.90;;;;;;6250764;28;20455;-60
2022/10/18 04:20:33;;;;;;;25.50;20.97;;;12.50;99.90;;;;;;6250646;28;20467;-61
2022/10/18 04:23:37;;;;;;;23.77;20.10;;;12.50;99.90;;;;;;6250703;28;20805;-61
2022/10/18 04:26:41;;;;;;;22.03;19.77;;;12.50;99.90;;;;;;6250314;28;20485;-60
2022/10/18 04:29:44;;;;;;;26.30;19.87;;;12.50;99.90;;;;;;6246029;28;20785;-60
2022/10/18 04:32:47;;;;;;;25.50;20.37;;;12.50;99.90;;;;;;6249879;28;20471;-60
2022/10/18 04:35:53;;;;;;;26.80;21.00;;;12.40;99.90;;;;;;6251906;28;20509;-60
2022/10/18 04:38:56;;;;;;;21.50;19.20;;;12.50;99.90;;;;;;6299747;28;20473;-60
2022/10/18 04:41:59;;;;;;;24.67;22.07;;;12.50;99.90;;;;;;6299506;28;20477;-60
2022/10/18 04:45:02;;;;;;;25.47;21.00;;;12.40;99.90;;;;;;6299582;28;20530;-60
2022/10/18 04:48:06;;;;;;;24.90;22.37;;;12.50;99.90;;;;;;6299457;28;20481;-61
2022/10/18 04:51:10;;;;;;;23.33;20.90;;;12.40;99.90;;;;;;6298948;28;20468;-61
2022/10/18 04:54:13;;;;;;;27.10;21.30;;;12.40;99.90;;;;;;6299326;28;20473;-61
2022/10/18 04:57:16;;;;;;;25.37;22.93;;;12.40;99.90;;;;;;6299462;28;20534;-61
2022/10/18 05:00:20;;;;;;;25.57;22.97;;;12.40;99.90;;;;;;6299028;28;20478;-62
2022/10/18 05:03:23;;;;;;;26.40;23.40;;;12.40;99.90;;;;;;6299024;28;20894;-62
2022/10/18 05:06:27;;;;;;;24.50;21.90;;;12.30;99.90;;;;;;6298595;28;20918;-62
2022/10/18 05:09:30;;;;;;;24.00;21.70;;;12.30;99.90;;;;;;6298447;28;20565;-62
2022/10/18 05:12:34;;;;;;;24.57;22.07;;;12.30;99.90;;;;;;6299273;28;20477;-62
2022/10/18 05:15:37;;;;;;;25.37;22.77;;;12.40;99.90;;;;;;6299081;28;20489;-62
2022/10/18 05:18:41;;;;;;;23.90;21.40;;;12.40;99.90;;;;;;6298491;28;20495;-62
2022/10/18 05:21:46;;;;;;;25.23;22.30;;;12.30;99.90;;;;;;6291889;28;20481;-62
2022/10/18 05:24:49;;;;;;;30.17;24.60;;;12.30;99.90;;;;;;6273636;28;20462;-62
2022/10/18 05:27:52;;;;;;;32.43;25.37;;;12.20;99.90;;;;;;6273479;28;20489;-62
2022/10/18 05:30:56;;;;;;;35.50;29.40;;;12.30;99.90;;;;;;6274515;28;20470;-62
2022/10/18 05:34:00;;;;;;;31.80;28.37;;;12.30;99.90;;;;;;6273485;28;20466;-62
2022/10/18 05:37:05;;;;;;;31.57;27.10;;;12.30;99.90;;;;;;6274179;28;20943;-61
2022/10/18 05:40:10;;;;;;;30.43;27.03;;;12.40;99.90;;;;;;6273989;28;20467;-61
2022/10/18 05:43:13;;;;;;;28.07;24.90;;;12.40;99.90;;;;;;6273670;28;20474;-61
2022/10/18 05:46:16;;;;;;;28.23;25.03;;;12.40;99.90;;;;;;6273338;28;20528;-61
2022/10/18 05:49:19;;;;;;;29.20;25.93;;;12.40;99.90;;;;;;6273297;28;20500;-61
2022/10/18 05:52:24;;;;;;;26.37;23.93;;;12.40;99.90;;;;;;6272887;28;20573;-61
2022/10/18 05:55:27;;;;;;;27.77;24.83;;;12.50;99.90;;;;;;6273195;28;20466;-62
2022/10/18 05:58:30;;;;;;;33.67;27.00;;;12.50;99.90;;;;;;6273379;28;20971;-61
2022/10/18 06:01:33;;;;;;;26.40;23.77;;;12.60;99.90;;;;;;6273849;28;20474;-61
2022/10/18 06:04:36;;;;;;;26.80;23.93;;;12.70;99.90;;;;;;6272780;28;21268;-62
2022/10/18 06:07:41;;;;;;;28.77;25.77;;;12.80;99.90;;;;;;6272894;28;20470;-62
2022/10/18 06:10:44;;;;;;;28.50;25.10;;;12.90;99.90;;;;;;6272543;28;20489;-63
2022/10/18 06:13:49;;;;;;;29.30;26.07;;;13.00;99.90;;;;;;6272263;28;20760;-63
2022/10/18 06:16:52;;;;;;;30.20;25.23;;;13.10;99.90;;;;;;6269650;28;20484;-63
2022/10/18 06:19:55;;;;;;;29.10;25.37;;;13.20;99.90;;;;;;6275777;28;20513;-62
2022/10/18 06:23:00;;;;;;;29.43;25.77;;;13.20;99.90;;;;;;6280212;28;20478;-62
2022/10/18 06:26:05;;;;;;;26.33;23.60;;;13.40;99.90;;;;;;6287658;28;20493;-62
2022/10/18 06:29:08;;;;;;;27.73;23.57;;;13.50;99.90;;;;;;6286466;28;20549;-61
2022/10/18 06:32:11;;;;;;;26.43;23.80;;;13.50;99.90;;;;;;6277723;28;20466;-62
2022/10/18 06:35:14;;;;;;;27.47;24.50;;;13.60;99.90;;;;;;6276739;28;20962;-62
2022/10/18 06:38:19;;;;;;;26.87;23.67;;;13.70;99.90;;;;;;6276060;28;20547;-62
2022/10/18 06:41:22;;;;;;;27.30;24.20;;;13.90;99.90;;;;;;6276373;28;20478;-62
2022/10/18 06:44:25;;;;;;;30.40;22.13;;;14.00;99.90;;;;;;6276095;28;20470;-62
2022/10/18 06:47:28;;;;;;;27.07;24.27;;;14.00;99.90;;;;;;6275771;28;20814;-62
2022/10/18 06:50:32;;;;;;;25.87;23.10;;;14.20;99.90;;;;;;6277324;28;20549;-62
2022/10/18 06:53:38;;;;;;;26.50;22.57;;;14.20;99.90;;;;;;6277775;28;20474;-61
2022/10/18 06:57:01;;;;;;;25.07;22.33;;;14.40;99.90;;;;;;6278230;28;20463;-62
2022/10/18 07:00:05;;;;;;;27.73;21.07;;;14.50;99.90;;;;;;6277250;28;20478;-62
2022/10/18 07:03:08;;;;;;;33.60;21.77;;;14.50;99.90;;;;;;6277163;28;20541;-62
2022/10/18 07:06:13;;;;;;;24.90;21.90;;;14.50;99.90;;;;;;6277260;28;20478;-62
2022/10/18 07:09:18;;;;;;;28.83;22.10;;;14.50;99.90;;;;;;6277344;28;20470;-62
2022/10/18 07:12:21;;;;;;;29.03;22.03;;;14.60;99.90;;;;;;6277000;28;20481;-62
2022/10/18 07:15:24;;;;;;;24.60;21.87;;;14.60;99.90;;;;;;6276654;28;20489;-62
2022/10/18 07:18:27;;;;;;;25.23;20.03;;;14.70;99.90;;;;;;6276798;28;20553;-62
2022/10/18 07:21:30;;;;;;;23.70;21.30;;;14.70;99.90;;;;;;6276961;28;20470;-62
2022/10/18 07:24:35;;;;;;;26.00;21.10;;;14.80;99.90;;;;;;6276673;28;20470;-62
2022/10/18 07:27:38;;;;;;;23.77;21.27;;;14.80;99.90;;;;;;6276459;28;20932;-62
2022/10/18 07:30:42;;;;;;;26.40;23.73;;;14.80;99.90;;;;;;6275869;28;21005;-62
2022/10/18 07:33:45;;;;;;;27.40;22.73;;;14.90;99.90;;;;;;6276218;28;20475;-62
2022/10/18 07:36:48;;;;;;;24.77;22.07;;;14.90;99.90;;;;;;6276172;28;20536;-62
2022/10/18 07:39:52;;;;;;;24.13;21.83;;;15.00;99.90;;;;;;6275983;28;20852;-62
2022/10/18 07:42:55;;;;;;;25.43;23.03;;;15.10;99.90;;;;;;6276056;28;20543;-62
2022/10/18 07:46:00;;;;;;;24.83;22.17;;;15.20;99.90;;;;;;6276254;28;20473;-62
2022/10/18 07:49:04;;;;;;;26.27;22.80;;;15.40;99.90;;;;;;6275707;28;20816;-62
2022/10/18 07:52:07;;;;;;;26.20;21.53;;;15.50;99.90;;;;;;6275642;28;20478;-62
2022/10/18 07:55:11;;;;;;;25.83;21.70;;;15.50;99.90;;;;;;6276109;28;20838;-62
2022/10/18 07:58:15;;;;;;;23.90;21.57;;;15.70;99.90;;;;;;6275400;28;20958;-62
2022/10/18 08:01:19;;;;;;;26.53;22.30;;;15.90;99.90;;;;;;6275892;28;20465;-62
2022/10/18 08:04:22;;;;;;;31.33;21.80;;;16.20;99.90;;;;;;6275508;28;21082;-62
2022/10/18 08:07:26;;;;;;;27.03;22.27;;;16.40;99.90;;;;;;6275584;28;20983;-62
2022/10/18 08:10:30;;;;;;;22.93;20.40;;;16.90;99.90;;;;;;6275850;28;20470;-62
2022/10/18 08:13:33;;;;;;;24.73;21.20;;;18.90;99.90;;;;;;6275424;28;20473;-63
2022/10/18 08:16:36;;;;;;;23.53;21.03;;;21.90;99.30;;;;;;6275315;28;20704;-63
2022/10/18 08:19:40;;;;;;;21.57;19.40;;;24.60;93.70;;;;;;6275906;28;20243;-59
2022/10/18 08:23:03;;;;;;;23.80;21.33;;;26.60;84.70;;;;;;6259544;28;20353;-60
2022/10/18 08:26:10;;;;;;;21.90;20.00;;;29.00;70.90;;;;;;6274391;28;20478;-61
2022/10/18 08:29:13;;;;;;;25.13;22.63;;;30.40;59.80;;;;;;6274776;28;20215;-60
2022/10/18 08:32:28;;;;;;;24.42;22.15;;;31.40;54.50;;;;;;6274683;28;20702;-60
2022/10/18 08:35:32;;;;;;;27.23;24.25;;;32.40;49.90;;;;;;6274458;28;20200;-60
2022/10/18 08:38:37;;;;;;;23.80;21.73;;;33.10;47.50;;;;;;6274052;28;20223;-60
2022/10/18 08:42:12;;;;;;;24.10;21.98;;;34.00;45.50;;;;;;6274763;28;20213;-60
2022/10/18 08:45:16;;;;;;;25.27;23.27;;;34.70;42.10;;;;;;6248490;28;20562;-60
2022/10/18 08:48:43;;;;;;;26.20;23.90;;;35.30;39.90;;;;;;6274475;28;20357;-60
2022/10/18 08:51:50;;;;;;;24.38;22.42;;;36.20;38.80;;;;;;6256924;28;20672;-60
2022/10/18 08:55:00;;;;;;;23.98;21.95;;;37.60;36.20;;;;;;6250377;28;20698;-60
2022/10/18 08:58:15;;;;;;;24.55;22.65;;;39.00;34.30;;;;;;6249542;28;20254;-60
2022/10/18 09:01:27;;;;;;;24.05;22.15;;;39.90;31.90;;;;;;6249988;28;20241;-59
2022/10/18 09:04:44;;;;;;;23.75;22.05;;;40.40;31.00;;;;;;6249377;28;20615;-59
2022/10/18 09:08:15;;;;;;;24.80;22.85;;;41.30;29.60;;;;;;6249775;28;20580;-60
2022/10/18 09:11:30;;;;;;;26.30;24.20;;;41.40;28.90;;;;;;6249655;28;20677;-60
2022/10/18 09:14:56;;;;;;;26.50;24.15;;;42.00;28.00;;;;;;6249908;28;20244;-60
2022/10/18 09:18:15;;;;;;;25.23;23.23;;;42.60;27.30;;;;;;6249729;28;20236;-60
2022/10/18 09:21:23;;;;;;;25.48;23.35;;;43.10;26.90;;;;;;6249741;28;20232;-60
2022/10/18 09:24:33;;;;;;;26.17;23.60;;;43.50;26.40;;;;;;6263042;28;20274;-60
2022/10/18 09:27:43;;;;;;;24.02;21.88;;;43.80;25.80;;;;;;6273836;28;20565;-62
2022/10/18 09:30:57;;;;;;;26.75;24.45;;;44.40;25.20;;;;;;6274572;28;20245;-60
2022/10/18 09:34:08;;;;;;;25.55;23.58;;;44.80;24.60;;;;;;6274079;28;20233;-61
2022/10/18 09:37:13;;;;;;;23.67;21.98;;;45.70;24.20;;;;;;6273999;28;20225;-61
2022/10/18 09:40:21;;;;;;;22.67;20.88;;;45.70;23.90;;;;;;6273894;28;20254;-61
2022/10/18 09:43:29;;;;;;;22.92;20.88;;;46.00;23.60;;;;;;6273229;28;20284;-61
2022/10/18 09:46:38;;;;;;;22.77;20.85;;;46.70;22.90;;;;;;6273522;28;20219;-61
2022/10/18 09:49:45;;;;;;;24.23;22.33;;;46.90;22.70;;;;;;6270993;28;20227;-61
2022/10/18 09:53:05;;;;;;;23.02;21.33;;;47.30;22.50;;;;;;6269260;28;20231;-61
2022/10/18 09:56:12;;;;;;;24.73;22.63;;;47.50;22.10;;;;;;6252903;28;20235;-61
2022/10/18 09:59:38;;;;;;;22.65;21.05;;;47.90;22.00;;;;;;6254367;28;20230;-61
2022/10/18 10:02:42;;;;;;;23.83;22.00;;;48.30;21.60;;;;;;6247689;28;20259;-60
2022/10/18 10:05:46;;;;;;;23.30;21.35;;;48.00;21.30;;;;;;6253605;28;20265;-60
2022/10/18 10:08:55;;;;;;;24.33;22.15;;;48.40;21.20;;;;;;6253690;28;20695;-60
2022/10/18 10:11:58;;;;;;;23.88;21.77;;;48.20;21.30;;;;;;6253723;28;20254;-60
2022/10/18 10:15:13;;;;;;;24.90;22.33;;;48.50;21.10;;;;;;6253566;28;20242;-60
2022/10/18 10:18:21;;;;;;;22.70;21.00;;;48.60;21.00;;;;;;6253177;28;20238;-61
2022/10/18 10:21:25;;;;;;;24.33;22.52;;;49.20;20.60;;;;;;6268724;28;20231;-61
2022/10/18 10:24:47;;;;;;;25.60;23.25;;;47.90;21.30;;;;;;6277883;28;20231;-61
2022/10/18 10:27:51;;;;;;;22.33;20.83;;;48.20;21.20;;;;;;6278038;28;20228;-60
2022/10/18 10:30:54;;;;;;;24.15;22.25;;;49.00;20.80;;;;;;6277812;28;20561;-61
2022/10/18 10:34:04;;;;;;;22.85;21.13;;;48.50;20.90;;;;;;6277680;28;20230;-60
2022/10/18 10:37:27;;;;;;;21.80;20.40;;;49.00;20.80;;;;;;6277648;28;20254;-60
2022/10/18 10:40:31;;;;;;;22.85;21.10;;;49.50;20.30;;;;;;6278057;28;20232;-60
2022/10/18 10:43:37;;;;;;;23.80;22.00;;;50.00;20.10;;;;;;6277409;28;20680;-60
2022/10/18 10:46:42;;;;;;;24.15;22.27;;;50.30;19.60;;;;;;6277727;28;20230;-60
2022/10/18 10:49:48;;;;;;;23.30;21.60;;;50.70;19.30;;;;;;6272579;28;20766;-61
2022/10/18 10:52:51;;;;;;;23.83;22.13;;;50.60;19.10;;;;;;6282749;28;20238;-61
2022/10/18 10:55:56;;;;;;;23.48;21.58;;;51.00;19.20;;;;;;6284378;28;20233;-60
2022/10/18 10:59:08;;;;;;;22.02;20.02;;;51.50;18.90;;;;;;6277120;28;20237;-61
2022/10/18 11:02:20;;;;;;;23.00;21.23;;;51.80;18.70;;;;;;6277214;28;20227;-61
2022/10/18 11:05:28;;;;;;;22.85;21.35;;;52.40;18.20;;;;;;6276751;28;20685;-60
2022/10/18 11:08:37;;;;;;;22.48;20.80;;;52.60;17.90;;;;;;6276535;28;20234;-61
2022/10/18 11:11:49;;;;;;;22.00;20.15;;;52.00;18.10;;;;;;6277176;28;20199;-60
2022/10/18 11:14:59;;;;;;;20.48;18.95;;;52.20;18.00;;;;;;6277102;28;20229;-61
2022/10/18 11:18:13;;;;;;;23.50;21.77;;;51.10;18.50;;;;;;6276874;28;20234;-60
2022/10/18 11:21:22;;;;;;;21.70;20.10;;;50.60;18.60;;;;;;6277241;28;20226;-60
2022/10/18 11:24:25;;;;;;;20.83;19.23;;;50.00;18.90;;;;;;6276499;28;20263;-59
2022/10/18 11:27:35;;;;;;;22.15;20.40;;;50.50;18.90;;;;;;6276873;28;20246;-60
2022/10/18 11:30:52;;;;;;;22.70;20.88;;;51.30;18.40;;;;;;6276795;28;20726;-61
2022/10/18 11:34:12;;;;;;;21.58;20.08;;;51.80;18.10;;;;;;6276288;28;20235;-60
2022/10/18 11:37:33;;;;;;;20.13;18.83;;;51.50;18.10;;;;;;6276567;28;20245;-60
2022/10/18 11:40:50;;;;;;;20.70;19.05;;;52.10;18.40;;;;;;6276599;28;20254;-60
2022/10/18 11:43:57;;;;;;;21.08;19.58;;;52.40;17.80;;;;;;6276475;28;20242;-60
2022/10/18 11:47:13;;;;;;;22.63;21.00;;;52.50;17.60;;;;;;6276552;28;20223;-60
2022/10/18 11:50:27;;;;;;;21.75;20.05;;;51.80;17.90;;;;;;6275873;28;20238;-60
2022/10/18 11:53:41;;;;;;;20.83;19.55;;;51.80;17.90;;;;;;6275936;28;20608;-60
2022/10/18 11:56:51;;;;;;;21.13;19.63;;;52.10;17.90;;;;;;6276160;28;20214;-60
2022/10/18 12:00:03;;;;;;;21.33;19.67;;;51.20;18.10;;;;;;6275994;28;20238;-61
2022/10/18 12:03:22;;;;;;;20.83;19.25;;;50.20;18.80;;;;;;6275434;28;20231;-60
2022/10/18 12:06:29;;;;;;;20.08;18.83;;;50.40;18.90;;;;;;6275299;28;20238;-61
2022/10/18 12:09:37;;;;;;;19.88;18.48;;;49.70;19.00;;;;;;6273345;28;20246;-61
2022/10/18 12:12:49;;;;;;;20.00;18.58;;;49.90;19.00;;;;;;6274903;28;20232;-61
2022/10/18 12:15:53;;;;;;;19.67;18.23;;;50.90;18.60;;;;;;6272922;28;20219;-61
2022/10/18 12:18:59;;;;;;;19.00;17.70;;;50.80;18.30;;;;;;6275090;28;20223;-61
2022/10/18 12:22:12;;;;;;;20.35;18.95;;;50.10;18.80;;;;;;6275237;28;20229;-60
2022/10/18 12:25:18;;;;;;;20.00;18.23;;;48.30;19.50;;;;;;6274748;28;20285;-60
2022/10/18 12:28:30;;;;;;;19.23;17.92;;;48.70;19.80;;;;;;6274735;28;20230;-60
2022/10/18 12:31:39;;;;;;;19.60;17.95;;;49.00;19.50;;;;;;6274172;28;20231;-59
2022/10/18 12:34:46;;;;;;;19.75;18.25;;;49.50;19.20;;;;;;6272306;28;20225;-59
2022/10/18 12:38:15;;;;;;;18.83;17.52;;;49.90;19.00;;;;;;6275052;28;20616;-59
2022/10/18 12:41:22;;;;;;;20.23;18.65;;;50.10;19.00;;;;;;6275194;28;20229;-58
2022/10/18 12:44:31;;;;;;;17.98;16.67;;;49.60;19.10;;;;;;6274506;28;20254;-58
2022/10/18 12:47:35;;;;;;;19.27;17.70;;;49.40;19.20;;;;;;6274735;28;20233;-60
2022/10/18 12:50:41;;;;;;;18.63;17.33;;;49.90;19.10;;;;;;6274968;28;20236;-59
2022/10/18 12:53:46;;;;;;;20.27;18.27;;;49.00;19.40;;;;;;6265042;28;20231;-59
2022/10/18 12:56:51;;;;;;;20.48;18.98;;;49.40;19.50;;;;;;6274720;28;20662;-58
2022/10/18 12:59:54;;;;;;;18.80;17.50;;;49.80;19.10;;;;;;6274359;28;20611;-58
2022/10/18 13:03:29;;;;;;;18.10;16.80;;;49.20;19.40;;;;;;6274765;28;20226;-58
2022/10/18 13:07:10;;;;;;;19.42;17.70;;;49.20;19.60;;;;;;6274623;28;20235;-58
2022/10/18 13:10:35;;;;;;;18.40;16.98;;;49.50;19.20;;;;;;6273269;28;20226;-59
2022/10/18 13:13:50;;;;;;;18.77;17.48;;;47.30;20.50;;;;;;6268836;28;20230;-59
2022/10/18 13:16:59;;;;;;;18.85;17.35;;;46.50;20.90;;;;;;6270499;28;20230;-59
2022/10/18 13:20:18;;;;;;;18.20;16.60;;;45.70;21.80;;;;;;6270964;28;20220;-59
2022/10/18 13:23:40;;;;;;;18.83;17.30;;;45.90;21.70;;;;;;6268405;28;20222;-59
2022/10/18 13:26:54;;;;;;;18.35;16.92;;;46.40;21.50;;;;;;6272168;28;20526;-59
2022/10/18 13:30:34;;;;;;;20.15;18.55;;;45.50;21.70;;;;;;6270833;28;20236;-60
2022/10/18 13:33:38;;;;;;;20.98;19.33;;;45.00;22.20;;;;;;6270617;28;20230;-59
2022/10/18 13:36:42;;;;;;;21.08;19.23;;;43.50;23.40;;;;;;6271153;28;20652;-59
2022/10/18 13:39:46;;;;;;;20.55;18.70;;;41.20;25.30;;;;;;6273520;28;20230;-59
2022/10/18 13:42:49;;;;;;;19.48;17.88;;;38.80;27.30;;;;;;6273112;28;20238;-59
2022/10/18 13:45:56;;;;;;;19.75;18.08;;;36.90;29.30;;;;;;6273077;28;20233;-59
2022/10/18 13:49:14;;;;;;;20.00;18.40;;;35.20;31.60;;;;;;6273325;28;20668;-59
2022/10/18 13:52:26;;;;;;;21.35;19.35;;;33.20;34.70;;;;;;6271486;28;20576;-59
2022/10/18 13:55:48;;;;;;;21.38;19.38;;;31.70;37.30;;;;;;6270835;28;20281;-59
2022/10/18 13:59:26;;;;;;;21.08;19.20;;;30.60;39.40;;;;;;6264398;28;20667;-59
2022/10/18 14:03:18;;;;;;;20.37;18.43;;;29.60;41.50;;;;;;6274207;28;20215;-59
2022/10/18 14:06:44;;;;;;;20.67;18.87;;;28.80;43.10;;;;;;6193714;28;20318;-59
2022/10/18 14:09:51;;;;;;;20.17;18.47;;;28.00;45.20;;;;;;6273699;28;20278;-59
2022/10/18 14:13:02;;;;;;;22.37;20.20;;;27.40;46.60;;;;;;6273479;28;20261;-59
2022/10/18 14:16:10;;;;;;;21.00;18.97;;;26.90;48.10;;;;;;6273312;28;20231;-59
2022/10/18 14:19:19;;;;;;;22.10;20.00;;;26.50;49.30;;;;;;6273566;28;20227;-58
2022/10/18 14:22:27;;;;;;;19.57;17.77;;;26.20;50.10;;;;;;6273513;28;20242;-58
2022/10/18 14:25:34;;;;;;;20.40;18.50;;;26.00;50.90;;;;;;6273856;28;20242;-59
2022/10/18 14:28:37;;;;;;;20.47;18.43;;;25.80;51.80;;;;;;6273579;28;20290;-60
2022/10/18 14:32:00;;;;;;;19.50;17.77;;;25.60;52.40;;;;;;6273600;28;20678;-59
2022/10/18 14:35:04;;;;;;;21.40;19.30;;;25.40;53.00;;;;;;6273633;28;20234;-60
2022/10/18 14:38:30;;;;;;;23.03;17.93;;;25.20;53.80;;;;;;6273063;28;20270;-60
2022/10/18 14:41:34;;;;;;;20.97;18.90;;;25.00;55.00;;;;;;6274134;28;20237;-59
2022/10/18 14:44:37;;;;;;;19.50;17.60;;;24.80;55.70;;;;;;6277911;28;20226;-59
2022/10/18 14:47:40;;;;;;;18.73;17.03;;;24.70;56.00;;;;;;6278041;28;20218;-59
2022/10/18 14:50:47;;;;;;;20.30;18.30;;;24.50;56.90;;;;;;6278677;28;20228;-58
2022/10/18 14:53:52;;;;;;;22.57;17.30;;;24.40;57.50;;;;;;6277038;28;20681;-60
2022/10/18 14:56:56;;;;;;;20.03;18.13;;;24.20;58.20;;;;;;6277767;28;20227;-58
2022/10/18 15:00:02;;;;;;;21.80;19.60;;;24.10;58.80;;;;;;6272149;28;20277;-58
2022/10/18 15:03:11;;;;;;;19.30;17.50;;;24.00;59.60;;;;;;6277550;28;20240;-60
2022/10/18 15:06:18;;;;;;;20.83;18.63;;;24.00;60.40;;;;;;6277170;28;20235;-59
2022/10/18 15:09:24;;;;;;;19.93;18.20;;;23.90;60.80;;;;;;6277262;28;20274;-60
2022/10/18 15:12:28;;;;;;;21.40;18.20;;;23.80;61.70;;;;;;6276925;28;20318;-58
2022/10/18 15:15:47;;;;;;;20.03;18.17;;;23.60;62.40;;;;;;6277229;28;20234;-57
2022/10/18 15:19:06;;;;;;;22.20;19.87;;;23.60;63.70;;;;;;6276478;28;20242;-58
2022/10/18 15:22:10;;;;;;;19.90;17.80;;;23.40;64.80;;;;;;6276678;28;20255;-58
2022/10/18 15:25:34;;;;;;;21.93;18.63;;;23.40;66.20;;;;;;6276644;28;20310;-58
2022/10/18 15:28:48;;;;;;;20.73;18.70;;;23.20;67.50;;;;;;6274641;28;20227;-59
2022/10/18 15:31:52;;;;;;;24.13;18.73;;;23.10;68.30;;;;;;6276538;28;20677;-59
2022/10/18 15:35:06;;;;;;;21.00;18.83;;;23.00;69.40;;;;;;6276115;28;20231;-59
2022/10/18 15:38:15;;;;;;;21.77;19.47;;;22.90;70.40;;;;;;6274357;28;20243;-59
2022/10/18 15:41:41;;;;;;;22.20;19.90;;;22.90;72.00;;;;;;6276455;28;20656;-59
2022/10/18 15:44:49;;;;;;;22.40;17.57;;;22.70;72.90;;;;;;6275994;28;20262;-59
2022/10/18 15:48:01;;;;;;;20.63;18.40;;;22.70;74.00;;;;;;6276062;28;20234;-58
2022/10/18 15:51:05;;;;;;;21.57;19.33;;;22.60;75.50;;;;;;6276230;28;20226;-58
2022/10/18 15:54:17;;;;;;;24.40;18.20;;;22.50;77.10;;;;;;6275558;28;20220;-58
2022/10/18 15:57:23;;;;;;;22.73;19.80;;;22.40;78.60;;;;;;6275547;28;20247;-58